sensor_id;sensor_type;location;lat;lon;timestamp;P1;durP1;ratioP1;P2;durP2;ratioP2
64498;SDS011;51087;55.718;21.122;2023-05-10T00:02:02;15.05;;;4.63;;
64498;SDS011;51087;55.718;21.122;2023-05-10T00:04:27;9.15;;;4.32;;
64498;SDS011;51087;55.718;21.122;2023-05-10T00:06:53;12.38;;;4.13;;
64498;SDS011;51087;55.718;21.122;2023-05-10T00:09:19;9.25;;;4.03;;
64498;SDS011;51087;55.718;21.122;2023-05-10T00:11:44;9.75;;;3.85;;
64498;SDS011;51087;55.718;21.122;2023-05-10T00:14:10;10.23;;;4.13;;
64498;SDS011;51087;55.718;21.122;2023-05-10T00:16:35;9.50;;;4.40;;
64498;SDS011;51087;55.718;21.122;2023-05-10T00:19:01;8.23;;;3.65;;
64498;SDS011;51087;55.718;21.122;2023-05-10T00:21:26;6.90;;;3.78;;
64498;SDS011;51087;55.718;21.122;2023-05-10T00:23:53;8.15;;;3.72;;
64498;SDS011;51087;55.718;21.122;2023-05-10T00:26:18;11.63;;;4.07;;
64498;SDS011;51087;55.718;21.122;2023-05-10T00:28:44;11.35;;;4.60;;
64498;SDS011;51087;55.718;21.122;2023-05-10T00:31:10;11.90;;;4.60;;
64498;SDS011;51087;55.718;21.122;2023-05-10T00:33:36;11.10;;;3.88;;
64498;SDS011;51087;55.718;21.122;2023-05-10T00:36:02;14.43;;;4.03;;
64498;SDS011;51087;55.718;21.122;2023-05-10T00:38:27;10.18;;;3.78;;
64498;SDS011;51087;55.718;21.122;2023-05-10T00:40:53;9.90;;;4.10;;
64498;SDS011;51087;55.718;21.122;2023-05-10T00:43:19;11.85;;;4.20;;
64498;SDS011;51087;55.718;21.122;2023-05-10T00:45:44;9.38;;;4.03;;
64498;SDS011;51087;55.718;21.122;2023-05-10T00:48:10;8.73;;;4.07;;
64498;SDS011;51087;55.718;21.122;2023-05-10T00:50:37;8.50;;;4.07;;
64498;SDS011;51087;55.718;21.122;2023-05-10T00:53:05;8.60;;;4.20;;
64498;SDS011;51087;55.718;21.122;2023-05-10T00:55:30;9.02;;;4.03;;
64498;SDS011;51087;55.718;21.122;2023-05-10T00:57:56;8.52;;;4.32;;
64498;SDS011;51087;55.718;21.122;2023-05-10T01:00:21;8.07;;;4.18;;
64498;SDS011;51087;55.718;21.122;2023-05-10T01:02:47;11.15;;;4.50;;
64498;SDS011;51087;55.718;21.122;2023-05-10T01:05:13;9.05;;;4.13;;
64498;SDS011;51087;55.718;21.122;2023-05-10T01:07:39;13.27;;;4.13;;
64498;SDS011;51087;55.718;21.122;2023-05-10T01:10:05;9.75;;;4.15;;
64498;SDS011;51087;55.718;21.122;2023-05-10T01:12:32;10.32;;;4.47;;
64498;SDS011;51087;55.718;21.122;2023-05-10T01:15:01;8.80;;;4.30;;
64498;SDS011;51087;55.718;21.122;2023-05-10T01:17:27;7.10;;;4.20;;
64498;SDS011;51087;55.718;21.122;2023-05-10T01:19:52;9.65;;;4.50;;
64498;SDS011;51087;55.718;21.122;2023-05-10T01:22:48;9.15;;;4.15;;
64498;SDS011;51087;55.718;21.122;2023-05-10T01:31:08;16.25;;;4.88;;
64498;SDS011;51087;55.718;21.122;2023-05-10T01:38:53;9.55;;;4.40;;
64498;SDS011;51087;55.718;21.122;2023-05-10T01:44:29;9.27;;;4.30;;
64498;SDS011;51087;55.718;21.122;2023-05-10T01:49:32;10.07;;;4.28;;
64498;SDS011;51087;55.718;21.122;2023-05-10T01:52:19;9.57;;;4.25;;
64498;SDS011;51087;55.718;21.122;2023-05-10T01:55:01;11.75;;;4.50;;
64498;SDS011;51087;55.718;21.122;2023-05-10T01:57:35;8.32;;;4.30;;
64498;SDS011;51087;55.718;21.122;2023-05-10T02:00:03;14.60;;;4.43;;
64498;SDS011;51087;55.718;21.122;2023-05-10T02:02:35;12.50;;;4.20;;
64498;SDS011;51087;55.718;21.122;2023-05-10T02:05:07;8.40;;;4.22;;
64498;SDS011;51087;55.718;21.122;2023-05-10T02:07:34;16.10;;;4.03;;
64498;SDS011;51087;55.718;21.122;2023-05-10T02:10:01;9.10;;;4.38;;
64498;SDS011;51087;55.718;21.122;2023-05-10T02:12:29;12.98;;;4.53;;
64498;SDS011;51087;55.718;21.122;2023-05-10T02:14:56;9.52;;;3.88;;
64498;SDS011;51087;55.718;21.122;2023-05-10T02:17:24;6.28;;;4.03;;
64498;SDS011;51087;55.718;21.122;2023-05-10T02:19:50;8.57;;;4.20;;
64498;SDS011;51087;55.718;21.122;2023-05-10T02:22:18;10.55;;;4.53;;
64498;SDS011;51087;55.718;21.122;2023-05-10T02:24:44;8.45;;;4.00;;
64498;SDS011;51087;55.718;21.122;2023-05-10T02:27:11;9.27;;;4.40;;
64498;SDS011;51087;55.718;21.122;2023-05-10T02:29:39;8.80;;;4.60;;
64498;SDS011;51087;55.718;21.122;2023-05-10T02:32:04;11.27;;;4.60;;
64498;SDS011;51087;55.718;21.122;2023-05-10T02:34:32;10.52;;;4.53;;
64498;SDS011;51087;55.718;21.122;2023-05-10T02:36:58;8.50;;;4.50;;
64498;SDS011;51087;55.718;21.122;2023-05-10T02:39:24;8.20;;;4.13;;
64498;SDS011;51087;55.718;21.122;2023-05-10T02:41:53;12.73;;;4.55;;
64498;SDS011;51087;55.718;21.122;2023-05-10T02:44:20;11.63;;;4.50;;
64498;SDS011;51087;55.718;21.122;2023-05-10T02:46:47;10.52;;;4.90;;
64498;SDS011;51087;55.718;21.122;2023-05-10T02:49:13;7.97;;;4.40;;
64498;SDS011;51087;55.718;21.122;2023-05-10T02:51:40;11.38;;;4.47;;
64498;SDS011;51087;55.718;21.122;2023-05-10T02:54:13;9.57;;;4.32;;
64498;SDS011;51087;55.718;21.122;2023-05-10T02:56:46;10.80;;;4.50;;
64498;SDS011;51087;55.718;21.122;2023-05-10T02:59:15;17.25;;;5.03;;
64498;SDS011;51087;55.718;21.122;2023-05-10T03:01:41;13.10;;;4.70;;
64498;SDS011;51087;55.718;21.122;2023-05-10T03:04:06;11.18;;;4.85;;
64498;SDS011;51087;55.718;21.122;2023-05-10T03:06:32;12.30;;;4.82;;
64498;SDS011;51087;55.718;21.122;2023-05-10T03:08:57;9.18;;;4.63;;
64498;SDS011;51087;55.718;21.122;2023-05-10T03:16:42;12.20;;;4.75;;
64498;SDS011;51087;55.718;21.122;2023-05-10T03:21:54;13.90;;;5.05;;
64498;SDS011;51087;55.718;21.122;2023-05-10T03:24:23;18.52;;;5.10;;
64498;SDS011;51087;55.718;21.122;2023-05-10T03:26:53;16.60;;;5.25;;
64498;SDS011;51087;55.718;21.122;2023-05-10T03:29:21;10.75;;;4.45;;
64498;SDS011;51087;55.718;21.122;2023-05-10T03:31:49;10.65;;;4.88;;
64498;SDS011;51087;55.718;21.122;2023-05-10T03:34:14;11.35;;;5.15;;
64498;SDS011;51087;55.718;21.122;2023-05-10T03:36:40;13.70;;;4.53;;
64498;SDS011;51087;55.718;21.122;2023-05-10T03:39:05;13.93;;;6.55;;
64498;SDS011;51087;55.718;21.122;2023-05-10T03:41:31;11.05;;;5.90;;
64498;SDS011;51087;55.718;21.122;2023-05-10T03:43:56;13.05;;;4.70;;
64498;SDS011;51087;55.718;21.122;2023-05-10T03:46:22;9.27;;;4.88;;
64498;SDS011;51087;55.718;21.122;2023-05-10T03:48:47;12.98;;;5.40;;
64498;SDS011;51087;55.718;21.122;2023-05-10T03:51:12;10.43;;;4.85;;
64498;SDS011;51087;55.718;21.122;2023-05-10T03:53:38;9.63;;;4.35;;
64498;SDS011;51087;55.718;21.122;2023-05-10T03:56:03;7.82;;;4.13;;
64498;SDS011;51087;55.718;21.122;2023-05-10T03:58:29;9.23;;;4.50;;
64498;SDS011;51087;55.718;21.122;2023-05-10T04:00:54;14.27;;;4.90;;
64498;SDS011;51087;55.718;21.122;2023-05-10T04:03:20;13.43;;;5.30;;
64498;SDS011;51087;55.718;21.122;2023-05-10T04:05:45;14.85;;;5.03;;
64498;SDS011;51087;55.718;21.122;2023-05-10T04:08:11;15.23;;;4.90;;
64498;SDS011;51087;55.718;21.122;2023-05-10T04:10:36;13.80;;;4.88;;
64498;SDS011;51087;55.718;21.122;2023-05-10T04:13:01;10.38;;;5.57;;
64498;SDS011;51087;55.718;21.122;2023-05-10T04:15:27;12.75;;;4.95;;
64498;SDS011;51087;55.718;21.122;2023-05-10T04:17:52;21.85;;;5.80;;
64498;SDS011;51087;55.718;21.122;2023-05-10T04:20:18;13.45;;;5.43;;
64498;SDS011;51087;55.718;21.122;2023-05-10T04:22:44;13.32;;;5.40;;
64498;SDS011;51087;55.718;21.122;2023-05-10T04:25:10;17.42;;;5.40;;
64498;SDS011;51087;55.718;21.122;2023-05-10T04:27:35;13.57;;;5.15;;
64498;SDS011;51087;55.718;21.122;2023-05-10T04:30:01;13.52;;;4.75;;
64498;SDS011;51087;55.718;21.122;2023-05-10T04:32:26;13.45;;;5.95;;
64498;SDS011;51087;55.718;21.122;2023-05-10T04:34:53;16.27;;;5.07;;
64498;SDS011;51087;55.718;21.122;2023-05-10T04:37:18;12.38;;;5.22;;
64498;SDS011;51087;55.718;21.122;2023-05-10T04:39:44;15.63;;;5.30;;
64498;SDS011;51087;55.718;21.122;2023-05-10T04:42:09;19.17;;;5.03;;
64498;SDS011;51087;55.718;21.122;2023-05-10T04:44:35;10.75;;;4.68;;
64498;SDS011;51087;55.718;21.122;2023-05-10T04:47:01;16.38;;;4.65;;
64498;SDS011;51087;55.718;21.122;2023-05-10T04:49:27;12.07;;;4.93;;
64498;SDS011;51087;55.718;21.122;2023-05-10T04:51:54;16.45;;;4.53;;
64498;SDS011;51087;55.718;21.122;2023-05-10T04:54:20;18.95;;;5.32;;
64498;SDS011;51087;55.718;21.122;2023-05-10T04:56:45;17.80;;;5.18;;
64498;SDS011;51087;55.718;21.122;2023-05-10T04:59:10;14.48;;;5.30;;
64498;SDS011;51087;55.718;21.122;2023-05-10T05:01:36;11.77;;;5.03;;
64498;SDS011;51087;55.718;21.122;2023-05-10T05:04:01;15.15;;;5.35;;
64498;SDS011;51087;55.718;21.122;2023-05-10T05:06:27;17.00;;;4.35;;
64498;SDS011;51087;55.718;21.122;2023-05-10T05:08:53;9.13;;;4.40;;
64498;SDS011;51087;55.718;21.122;2023-05-10T05:11:19;11.18;;;4.22;;
64498;SDS011;51087;55.718;21.122;2023-05-10T05:13:45;16.52;;;4.85;;
64498;SDS011;51087;55.718;21.122;2023-05-10T05:16:11;12.80;;;4.70;;
64498;SDS011;51087;55.718;21.122;2023-05-10T05:18:36;13.40;;;5.30;;
64498;SDS011;51087;55.718;21.122;2023-05-10T05:21:02;11.57;;;4.32;;
64498;SDS011;51087;55.718;21.122;2023-05-10T05:23:27;10.45;;;4.28;;
64498;SDS011;51087;55.718;21.122;2023-05-10T05:25:53;20.33;;;4.85;;
64498;SDS011;51087;55.718;21.122;2023-05-10T05:28:19;12.15;;;4.50;;
64498;SDS011;51087;55.718;21.122;2023-05-10T05:30:47;11.40;;;4.63;;
64498;SDS011;51087;55.718;21.122;2023-05-10T05:33:13;20.75;;;4.40;;
64498;SDS011;51087;55.718;21.122;2023-05-10T05:35:40;17.70;;;4.90;;
64498;SDS011;51087;55.718;21.122;2023-05-10T05:38:07;19.38;;;7.20;;
64498;SDS011;51087;55.718;21.122;2023-05-10T05:40:33;12.50;;;4.70;;
64498;SDS011;51087;55.718;21.122;2023-05-10T05:42:58;13.50;;;4.53;;
64498;SDS011;51087;55.718;21.122;2023-05-10T05:45:23;16.60;;;4.25;;
64498;SDS011;51087;55.718;21.122;2023-05-10T05:47:49;9.10;;;4.20;;
64498;SDS011;51087;55.718;21.122;2023-05-10T05:50:14;8.10;;;3.95;;
64498;SDS011;51087;55.718;21.122;2023-05-10T05:52:40;15.93;;;4.93;;
64498;SDS011;51087;55.718;21.122;2023-05-10T05:55:05;13.82;;;4.10;;
64498;SDS011;51087;55.718;21.122;2023-05-10T05:57:31;13.05;;;4.70;;
64498;SDS011;51087;55.718;21.122;2023-05-10T05:59:56;11.25;;;4.10;;
64498;SDS011;51087;55.718;21.122;2023-05-10T06:02:24;17.88;;;5.20;;
64498;SDS011;51087;55.718;21.122;2023-05-10T06:04:50;13.05;;;4.18;;
64498;SDS011;51087;55.718;21.122;2023-05-10T06:07:15;10.32;;;4.32;;
64498;SDS011;51087;55.718;21.122;2023-05-10T06:09:40;8.30;;;4.10;;
64498;SDS011;51087;55.718;21.122;2023-05-10T06:12:06;16.42;;;4.72;;
64498;SDS011;51087;55.718;21.122;2023-05-10T06:14:31;9.80;;;4.07;;
64498;SDS011;51087;55.718;21.122;2023-05-10T06:16:57;9.35;;;4.05;;
64498;SDS011;51087;55.718;21.122;2023-05-10T06:19:24;8.93;;;3.92;;
64498;SDS011;51087;55.718;21.122;2023-05-10T06:21:51;8.63;;;3.78;;
64498;SDS011;51087;55.718;21.122;2023-05-10T06:24:16;14.98;;;4.15;;
64498;SDS011;51087;55.718;21.122;2023-05-10T06:26:42;13.43;;;4.25;;
64498;SDS011;51087;55.718;21.122;2023-05-10T06:29:07;16.02;;;3.90;;
64498;SDS011;51087;55.718;21.122;2023-05-10T06:31:33;12.20;;;3.67;;
64498;SDS011;51087;55.718;21.122;2023-05-10T06:33:58;15.35;;;3.70;;
64498;SDS011;51087;55.718;21.122;2023-05-10T06:36:24;14.68;;;4.60;;
64498;SDS011;51087;55.718;21.122;2023-05-10T06:38:51;6.93;;;3.70;;
64498;SDS011;51087;55.718;21.122;2023-05-10T06:41:16;16.88;;;4.05;;
64498;SDS011;51087;55.718;21.122;2023-05-10T06:43:42;9.40;;;3.50;;
64498;SDS011;51087;55.718;21.122;2023-05-10T06:46:08;11.43;;;3.85;;
64498;SDS011;51087;55.718;21.122;2023-05-10T06:48:33;18.17;;;3.97;;
64498;SDS011;51087;55.718;21.122;2023-05-10T06:50:59;11.65;;;3.33;;
64498;SDS011;51087;55.718;21.122;2023-05-10T06:53:24;15.15;;;3.70;;
64498;SDS011;51087;55.718;21.122;2023-05-10T06:55:50;7.65;;;3.38;;
64498;SDS011;51087;55.718;21.122;2023-05-10T06:58:15;12.38;;;3.88;;
64498;SDS011;51087;55.718;21.122;2023-05-10T07:00:41;8.55;;;3.35;;
64498;SDS011;51087;55.718;21.122;2023-05-10T07:03:09;5.63;;;3.20;;
64498;SDS011;51087;55.718;21.122;2023-05-10T07:05:35;10.65;;;3.72;;
64498;SDS011;51087;55.718;21.122;2023-05-10T07:08:03;5.40;;;2.90;;
64498;SDS011;51087;55.718;21.122;2023-05-10T07:10:29;10.75;;;3.10;;
64498;SDS011;51087;55.718;21.122;2023-05-10T07:12:55;8.75;;;2.78;;
64498;SDS011;51087;55.718;21.122;2023-05-10T07:15:20;10.32;;;3.05;;
64498;SDS011;51087;55.718;21.122;2023-05-10T07:17:46;8.75;;;2.80;;
64498;SDS011;51087;55.718;21.122;2023-05-10T07:20:11;11.23;;;3.08;;
64498;SDS011;51087;55.718;21.122;2023-05-10T07:22:37;16.23;;;3.47;;
64498;SDS011;51087;55.718;21.122;2023-05-10T07:25:03;7.75;;;2.80;;
64498;SDS011;51087;55.718;21.122;2023-05-10T07:27:28;8.30;;;3.03;;
64498;SDS011;51087;55.718;21.122;2023-05-10T07:29:55;14.52;;;3.03;;
64498;SDS011;51087;55.718;21.122;2023-05-10T07:32:21;6.15;;;2.67;;
64498;SDS011;51087;55.718;21.122;2023-05-10T07:34:47;7.22;;;2.70;;
64498;SDS011;51087;55.718;21.122;2023-05-10T07:37:12;5.65;;;2.67;;
64498;SDS011;51087;55.718;21.122;2023-05-10T07:39:37;12.60;;;3.75;;
64498;SDS011;51087;55.718;21.122;2023-05-10T07:42:03;8.77;;;2.22;;
64498;SDS011;51087;55.718;21.122;2023-05-10T07:44:28;9.95;;;3.20;;
64498;SDS011;51087;55.718;21.122;2023-05-10T07:46:54;13.10;;;2.97;;
64498;SDS011;51087;55.718;21.122;2023-05-10T07:49:20;8.95;;;3.05;;
64498;SDS011;51087;55.718;21.122;2023-05-10T07:51:45;12.68;;;2.97;;
64498;SDS011;51087;55.718;21.122;2023-05-10T07:54:10;11.23;;;2.92;;
64498;SDS011;51087;55.718;21.122;2023-05-10T07:56:37;10.65;;;2.35;;
64498;SDS011;51087;55.718;21.122;2023-05-10T07:59:04;11.02;;;2.35;;
64498;SDS011;51087;55.718;21.122;2023-05-10T08:01:31;6.15;;;2.40;;
64498;SDS011;51087;55.718;21.122;2023-05-10T08:03:58;10.68;;;2.90;;
64498;SDS011;51087;55.718;21.122;2023-05-10T08:06:23;4.55;;;2.50;;
64498;SDS011;51087;55.718;21.122;2023-05-10T08:08:49;6.72;;;2.45;;
64498;SDS011;51087;55.718;21.122;2023-05-10T08:11:18;9.85;;;2.40;;
64498;SDS011;51087;55.718;21.122;2023-05-10T08:13:47;9.32;;;2.15;;
64498;SDS011;51087;55.718;21.122;2023-05-10T08:16:13;7.57;;;2.10;;
64498;SDS011;51087;55.718;21.122;2023-05-10T08:18:39;4.88;;;2.80;;
64498;SDS011;51087;55.718;21.122;2023-05-10T08:21:05;7.53;;;2.35;;
64498;SDS011;51087;55.718;21.122;2023-05-10T08:23:30;12.10;;;2.13;;
64498;SDS011;51087;55.718;21.122;2023-05-10T08:25:55;5.35;;;2.10;;
64498;SDS011;51087;55.718;21.122;2023-05-10T08:28:21;4.72;;;2.40;;
64498;SDS011;51087;55.718;21.122;2023-05-10T08:30:47;9.07;;;1.83;;
64498;SDS011;51087;55.718;21.122;2023-05-10T08:33:12;11.45;;;2.28;;
64498;SDS011;51087;55.718;21.122;2023-05-10T08:35:38;5.97;;;2.08;;
64498;SDS011;51087;55.718;21.122;2023-05-10T08:38:03;5.53;;;1.90;;
64498;SDS011;51087;55.718;21.122;2023-05-10T08:40:28;6.47;;;2.00;;
64498;SDS011;51087;55.718;21.122;2023-05-10T08:42:55;6.35;;;2.42;;
64498;SDS011;51087;55.718;21.122;2023-05-10T08:45:26;4.57;;;2.22;;
64498;SDS011;51087;55.718;21.122;2023-05-10T08:47:56;7.78;;;2.28;;
64498;SDS011;51087;55.718;21.122;2023-05-10T08:50:23;8.30;;;2.20;;
64498;SDS011;51087;55.718;21.122;2023-05-10T08:52:50;6.80;;;2.28;;
64498;SDS011;51087;55.718;21.122;2023-05-10T08:55:19;7.75;;;2.10;;
64498;SDS011;51087;55.718;21.122;2023-05-10T08:57:45;10.20;;;2.10;;
64498;SDS011;51087;55.718;21.122;2023-05-10T09:00:11;6.88;;;2.10;;
64498;SDS011;51087;55.718;21.122;2023-05-10T09:02:38;6.78;;;1.90;;
64498;SDS011;51087;55.718;21.122;2023-05-10T09:05:04;7.30;;;2.17;;
64498;SDS011;51087;55.718;21.122;2023-05-10T09:07:30;4.63;;;1.95;;
64498;SDS011;51087;55.718;21.122;2023-05-10T09:09:56;8.70;;;1.75;;
64498;SDS011;51087;55.718;21.122;2023-05-10T09:12:22;6.20;;;2.10;;
64498;SDS011;51087;55.718;21.122;2023-05-10T09:14:48;3.95;;;1.80;;
64498;SDS011;51087;55.718;21.122;2023-05-10T09:17:17;5.25;;;1.83;;
64498;SDS011;51087;55.718;21.122;2023-05-10T09:19:42;12.20;;;2.30;;
64498;SDS011;51087;55.718;21.122;2023-05-10T09:22:10;7.30;;;2.00;;
64498;SDS011;51087;55.718;21.122;2023-05-10T09:24:35;8.38;;;2.15;;
64498;SDS011;51087;55.718;21.122;2023-05-10T09:27:01;18.30;;;2.00;;
64498;SDS011;51087;55.718;21.122;2023-05-10T09:29:38;10.80;;;2.30;;
64498;SDS011;51087;55.718;21.122;2023-05-10T09:32:05;6.90;;;2.10;;
64498;SDS011;51087;55.718;21.122;2023-05-10T09:34:31;10.40;;;2.42;;
64498;SDS011;51087;55.718;21.122;2023-05-10T09:36:58;6.28;;;2.00;;
64498;SDS011;51087;55.718;21.122;2023-05-10T09:39:32;6.68;;;2.35;;
64498;SDS011;51087;55.718;21.122;2023-05-10T09:41:59;10.02;;;2.10;;
64498;SDS011;51087;55.718;21.122;2023-05-10T09:44:28;7.07;;;2.00;;
64498;SDS011;51087;55.718;21.122;2023-05-10T09:46:54;7.43;;;2.08;;
64498;SDS011;51087;55.718;21.122;2023-05-10T09:49:20;4.88;;;2.00;;
64498;SDS011;51087;55.718;21.122;2023-05-10T09:51:46;9.43;;;2.30;;
64498;SDS011;51087;55.718;21.122;2023-05-10T09:54:15;6.18;;;2.10;;
64498;SDS011;51087;55.718;21.122;2023-05-10T09:56:41;8.07;;;2.20;;
64498;SDS011;51087;55.718;21.122;2023-05-10T09:59:08;6.95;;;2.08;;
64498;SDS011;51087;55.718;21.122;2023-05-10T10:01:36;9.45;;;2.08;;
64498;SDS011;51087;55.718;21.122;2023-05-10T10:04:02;9.95;;;2.10;;
64498;SDS011;51087;55.718;21.122;2023-05-10T10:06:38;11.38;;;2.00;;
64498;SDS011;51087;55.718;21.122;2023-05-10T10:09:05;6.25;;;2.03;;
64498;SDS011;51087;55.718;21.122;2023-05-10T10:11:32;11.35;;;2.25;;
64498;SDS011;51087;55.718;21.122;2023-05-10T10:13:59;10.93;;;2.15;;
64498;SDS011;51087;55.718;21.122;2023-05-10T10:16:24;5.70;;;1.73;;
64498;SDS011;51087;55.718;21.122;2023-05-10T10:18:51;6.50;;;1.95;;
64498;SDS011;51087;55.718;21.122;2023-05-10T10:21:17;7.53;;;1.90;;
64498;SDS011;51087;55.718;21.122;2023-05-10T10:23:42;3.90;;;1.63;;
64498;SDS011;51087;55.718;21.122;2023-05-10T10:26:08;8.52;;;1.92;;
64498;SDS011;51087;55.718;21.122;2023-05-10T10:31:55;3.90;;;1.88;;
64498;SDS011;51087;55.718;21.122;2023-05-10T10:36:33;8.57;;;1.60;;
64498;SDS011;51087;55.718;21.122;2023-05-10T10:39:09;8.18;;;2.08;;
64498;SDS011;51087;55.718;21.122;2023-05-10T10:41:36;6.00;;;1.80;;
64498;SDS011;51087;55.718;21.122;2023-05-10T10:44:22;5.45;;;2.05;;
64498;SDS011;51087;55.718;21.122;2023-05-10T10:49:30;6.68;;;1.90;;
64498;SDS011;51087;55.718;21.122;2023-05-10T10:57:32;6.03;;;1.75;;
64498;SDS011;51087;55.718;21.122;2023-05-10T11:02:49;6.55;;;1.88;;
64498;SDS011;51087;55.718;21.122;2023-05-10T11:06:07;9.20;;;2.10;;
64498;SDS011;51087;55.718;21.122;2023-05-10T11:08:15;5.28;;;1.65;;
64498;SDS011;51087;55.718;21.122;2023-05-10T11:10:52;5.75;;;1.90;;
64498;SDS011;51087;55.718;21.122;2023-05-10T11:15:58;8.43;;;2.10;;
64498;SDS011;51087;55.718;21.122;2023-05-10T11:18:28;12.35;;;1.88;;
64498;SDS011;51087;55.718;21.122;2023-05-10T11:20:58;12.98;;;2.50;;
64498;SDS011;51087;55.718;21.122;2023-05-10T11:23:31;8.52;;;1.80;;
64498;SDS011;51087;55.718;21.122;2023-05-10T11:26:12;9.43;;;2.25;;
64498;SDS011;51087;55.718;21.122;2023-05-10T11:28:45;10.70;;;1.90;;
64498;SDS011;51087;55.718;21.122;2023-05-10T11:31:17;10.73;;;2.50;;
64498;SDS011;51087;55.718;21.122;2023-05-10T11:33:50;7.88;;;2.30;;
64498;SDS011;51087;55.718;21.122;2023-05-10T11:36:18;7.88;;;2.40;;
64498;SDS011;51087;55.718;21.122;2023-05-10T11:38:46;7.97;;;3.00;;
64498;SDS011;51087;55.718;21.122;2023-05-10T11:41:12;7.05;;;2.10;;
64498;SDS011;51087;55.718;21.122;2023-05-10T11:43:38;13.88;;;2.00;;
64498;SDS011;51087;55.718;21.122;2023-05-10T11:46:05;7.93;;;2.05;;
64498;SDS011;51087;55.718;21.122;2023-05-10T11:48:32;7.18;;;2.03;;
64498;SDS011;51087;55.718;21.122;2023-05-10T11:50:58;7.63;;;1.63;;
64498;SDS011;51087;55.718;21.122;2023-05-10T11:53:26;4.35;;;1.90;;
64498;SDS011;51087;55.718;21.122;2023-05-10T11:55:52;7.00;;;1.85;;
64498;SDS011;51087;55.718;21.122;2023-05-10T11:58:18;8.07;;;2.05;;
64498;SDS011;51087;55.718;21.122;2023-05-10T12:00:43;13.82;;;2.60;;
64498;SDS011;51087;55.718;21.122;2023-05-10T12:03:10;10.02;;;2.15;;
64498;SDS011;51087;55.718;21.122;2023-05-10T12:05:36;11.52;;;2.67;;
64498;SDS011;51087;55.718;21.122;2023-05-10T12:08:14;11.30;;;3.17;;
64498;SDS011;51087;55.718;21.122;2023-05-10T12:10:40;10.13;;;2.00;;
64498;SDS011;51087;55.718;21.122;2023-05-10T12:13:10;13.13;;;2.95;;
64498;SDS011;51087;55.718;21.122;2023-05-10T12:15:38;9.77;;;3.57;;
64498;SDS011;51087;55.718;21.122;2023-05-10T12:18:03;11.20;;;2.00;;
64498;SDS011;51087;55.718;21.122;2023-05-10T12:20:30;9.02;;;3.70;;
64498;SDS011;51087;55.718;21.122;2023-05-10T12:22:56;8.85;;;4.80;;
64498;SDS011;51087;55.718;21.122;2023-05-10T12:25:24;6.32;;;2.47;;
64498;SDS011;51087;55.718;21.122;2023-05-10T12:27:55;4.72;;;1.70;;
64498;SDS011;51087;55.718;21.122;2023-05-10T12:30:22;7.05;;;2.42;;
64498;SDS011;51087;55.718;21.122;2023-05-10T12:32:51;7.65;;;2.00;;
64498;SDS011;51087;55.718;21.122;2023-05-10T12:35:17;9.25;;;1.98;;
64498;SDS011;51087;55.718;21.122;2023-05-10T12:37:47;4.63;;;2.00;;
64498;SDS011;51087;55.718;21.122;2023-05-10T12:40:13;6.68;;;1.90;;
64498;SDS011;51087;55.718;21.122;2023-05-10T12:42:38;5.68;;;2.10;;
64498;SDS011;51087;55.718;21.122;2023-05-10T12:45:05;5.30;;;1.90;;
64498;SDS011;51087;55.718;21.122;2023-05-10T12:47:31;6.47;;;2.35;;
64498;SDS011;51087;55.718;21.122;2023-05-10T12:49:57;4.20;;;2.10;;
64498;SDS011;51087;55.718;21.122;2023-05-10T12:52:23;9.82;;;2.67;;
64498;SDS011;51087;55.718;21.122;2023-05-10T12:54:49;7.07;;;3.08;;
64498;SDS011;51087;55.718;21.122;2023-05-10T12:57:14;9.70;;;2.40;;
64498;SDS011;51087;55.718;21.122;2023-05-10T12:59:40;9.75;;;2.38;;
64498;SDS011;51087;55.718;21.122;2023-05-10T13:02:05;8.30;;;2.10;;
64498;SDS011;51087;55.718;21.122;2023-05-10T13:04:33;9.10;;;2.05;;
64498;SDS011;51087;55.718;21.122;2023-05-10T13:06:59;6.72;;;2.20;;
64498;SDS011;51087;55.718;21.122;2023-05-10T13:09:26;8.15;;;1.90;;
64498;SDS011;51087;55.718;21.122;2023-05-10T13:11:52;4.13;;;2.10;;
64498;SDS011;51087;55.718;21.122;2023-05-10T13:14:20;11.32;;;2.25;;
64498;SDS011;51087;55.718;21.122;2023-05-10T13:16:47;6.70;;;2.83;;
64498;SDS011;51087;55.718;21.122;2023-05-10T13:19:16;6.95;;;2.45;;
64498;SDS011;51087;55.718;21.122;2023-05-10T13:21:42;9.38;;;2.30;;
64498;SDS011;51087;55.718;21.122;2023-05-10T13:24:09;7.25;;;2.42;;
64498;SDS011;51087;55.718;21.122;2023-05-10T13:26:39;7.35;;;2.08;;
64498;SDS011;51087;55.718;21.122;2023-05-10T13:29:05;10.23;;;2.40;;
64498;SDS011;51087;55.718;21.122;2023-05-10T13:31:31;5.50;;;2.17;;
64498;SDS011;51087;55.718;21.122;2023-05-10T13:34:03;7.85;;;2.22;;
64498;SDS011;51087;55.718;21.122;2023-05-10T13:36:28;6.93;;;2.25;;
64498;SDS011;51087;55.718;21.122;2023-05-10T13:38:54;5.25;;;2.50;;
64498;SDS011;51087;55.718;21.122;2023-05-10T13:41:25;5.30;;;2.38;;
64498;SDS011;51087;55.718;21.122;2023-05-10T13:43:51;8.90;;;2.65;;
64498;SDS011;51087;55.718;21.122;2023-05-10T13:46:16;7.50;;;2.42;;
64498;SDS011;51087;55.718;21.122;2023-05-10T13:48:42;10.75;;;2.50;;
64498;SDS011;51087;55.718;21.122;2023-05-10T13:51:08;10.55;;;2.33;;
64498;SDS011;51087;55.718;21.122;2023-05-10T13:53:33;13.50;;;3.78;;
64498;SDS011;51087;55.718;21.122;2023-05-10T13:55:59;19.20;;;5.18;;
64498;SDS011;51087;55.718;21.122;2023-05-10T13:58:25;7.95;;;2.28;;
64498;SDS011;51087;55.718;21.122;2023-05-10T14:00:51;7.07;;;2.20;;
64498;SDS011;51087;55.718;21.122;2023-05-10T14:03:17;8.95;;;2.50;;
64498;SDS011;51087;55.718;21.122;2023-05-10T14:05:43;6.35;;;2.40;;
64498;SDS011;51087;55.718;21.122;2023-05-10T14:08:10;7.50;;;2.13;;
64498;SDS011;51087;55.718;21.122;2023-05-10T14:10:38;8.68;;;3.10;;
64498;SDS011;51087;55.718;21.122;2023-05-10T14:13:04;10.70;;;2.58;;
64498;SDS011;51087;55.718;21.122;2023-05-10T14:15:30;14.27;;;2.40;;
64498;SDS011;51087;55.718;21.122;2023-05-10T14:17:56;12.10;;;4.03;;
64498;SDS011;51087;55.718;21.122;2023-05-10T14:20:21;9.73;;;2.00;;
64498;SDS011;51087;55.718;21.122;2023-05-10T14:22:47;5.82;;;2.45;;
64498;SDS011;51087;55.718;21.122;2023-05-10T14:25:13;5.60;;;2.63;;
64498;SDS011;51087;55.718;21.122;2023-05-10T14:27:39;9.20;;;2.22;;
64498;SDS011;51087;55.718;21.122;2023-05-10T14:30:05;4.50;;;2.45;;
64498;SDS011;51087;55.718;21.122;2023-05-10T14:32:31;8.77;;;2.58;;
64498;SDS011;51087;55.718;21.122;2023-05-10T14:34:57;6.57;;;2.75;;
64498;SDS011;51087;55.718;21.122;2023-05-10T14:37:22;6.10;;;2.85;;
64498;SDS011;51087;55.718;21.122;2023-05-10T14:39:48;9.40;;;2.50;;
64498;SDS011;51087;55.718;21.122;2023-05-10T14:42:14;6.25;;;2.20;;
64498;SDS011;51087;55.718;21.122;2023-05-10T14:44:39;23.85;;;2.90;;
64498;SDS011;51087;55.718;21.122;2023-05-10T14:47:05;8.93;;;2.10;;
64498;SDS011;51087;55.718;21.122;2023-05-10T14:49:31;11.18;;;2.08;;
64498;SDS011;51087;55.718;21.122;2023-05-10T14:51:57;4.70;;;2.40;;
64498;SDS011;51087;55.718;21.122;2023-05-10T14:54:22;7.47;;;2.42;;
64498;SDS011;51087;55.718;21.122;2023-05-10T14:56:48;3.58;;;2.30;;
64498;SDS011;51087;55.718;21.122;2023-05-10T14:59:17;7.38;;;2.80;;
64498;SDS011;51087;55.718;21.122;2023-05-10T15:01:43;6.20;;;2.50;;
64498;SDS011;51087;55.718;21.122;2023-05-10T15:04:11;7.85;;;2.33;;
64498;SDS011;51087;55.718;21.122;2023-05-10T15:06:38;5.85;;;2.80;;
64498;SDS011;51087;55.718;21.122;2023-05-10T15:09:04;7.13;;;2.75;;
64498;SDS011;51087;55.718;21.122;2023-05-10T15:11:31;12.68;;;2.80;;